sensor_id;sensor_type;location;lat;lon;timestamp;temperature;humidity
69328;DHT22;56472;52.114;5.492;2023-04-06T00:00:55;9.40;48.50
69328;DHT22;56472;52.114;5.492;2023-04-06T00:03:22;9.40;48.60
69328;DHT22;56472;52.114;5.492;2023-04-06T00:05:49;9.40;48.70
69328;DHT22;56472;52.114;5.492;2023-04-06T00:08:16;9.30;49.60
69328;DHT22;56472;52.114;5.492;2023-04-06T00:10:43;9.30;48.80
69328;DHT22;56472;52.114;5.492;2023-04-06T00:13:10;9.30;48.90
69328;DHT22;56472;52.114;5.492;2023-04-06T00:15:37;9.20;48.90
69328;DHT22;56472;52.114;5.492;2023-04-06T00:18:04;9.20;49.00
69328;DHT22;56472;52.114;5.492;2023-04-06T00:20:30;9.20;49.10
69328;DHT22;56472;52.114;5.492;2023-04-06T00:22:57;9.20;49.30
69328;DHT22;56472;52.114;5.492;2023-04-06T00:25:24;9.10;49.30
69328;DHT22;56472;52.114;5.492;2023-04-06T00:27:52;9.10;49.40
69328;DHT22;56472;52.114;5.492;2023-04-06T00:30:19;9.10;49.60
69328;DHT22;56472;52.114;5.492;2023-04-06T00:32:46;9.10;49.50
69328;DHT22;56472;52.114;5.492;2023-04-06T00:35:13;9.00;49.50
69328;DHT22;56472;52.114;5.492;2023-04-06T00:37:39;9.00;49.70
69328;DHT22;56472;52.114;5.492;2023-04-06T00:40:07;9.00;49.70
69328;DHT22;56472;52.114;5.492;2023-04-06T00:42:34;9.00;49.60
69328;DHT22;56472;52.114;5.492;2023-04-06T00:45:02;8.90;49.60
69328;DHT22;56472;52.114;5.492;2023-04-06T00:47:29;8.90;49.80
69328;DHT22;56472;52.114;5.492;2023-04-06T00:49:56;8.90;49.70
69328;DHT22;56472;52.114;5.492;2023-04-06T00:52:23;8.90;49.80
69328;DHT22;56472;52.114;5.492;2023-04-06T00:54:51;8.80;49.80
69328;DHT22;56472;52.114;5.492;2023-04-06T00:57:19;8.80;49.90
69328;DHT22;56472;52.114;5.492;2023-04-06T00:59:53;8.80;49.70
69328;DHT22;56472;52.114;5.492;2023-04-06T01:02:20;8.80;49.60
69328;DHT22;56472;52.114;5.492;2023-04-06T01:04:50;8.80;49.80
69328;DHT22;56472;52.114;5.492;2023-04-06T01:07:37;8.70;49.70
69328;DHT22;56472;52.114;5.492;2023-04-06T01:10:26;8.70;49.90
69328;DHT22;56472;52.114;5.492;2023-04-06T01:13:00;8.70;50.00
69328;DHT22;56472;52.114;5.492;2023-04-06T01:15:42;8.70;50.00
69328;DHT22;56472;52.114;5.492;2023-04-06T01:18:13;8.70;50.20
69328;DHT22;56472;52.114;5.492;2023-04-06T01:20:47;8.60;50.40
69328;DHT22;56472;52.114;5.492;2023-04-06T01:23:15;8.60;50.60
69328;DHT22;56472;52.114;5.492;2023-04-06T01:25:45;8.60;50.70
69328;DHT22;56472;52.114;5.492;2023-04-06T01:28:12;8.50;50.90
69328;DHT22;56472;52.114;5.492;2023-04-06T01:30:54;8.60;51.30
69328;DHT22;56472;52.114;5.492;2023-04-06T01:33:44;8.50;51.50
69328;DHT22;56472;52.114;5.492;2023-04-06T01:36:15;8.50;51.70
69328;DHT22;56472;52.114;5.492;2023-04-06T01:38:44;8.50;51.80
69328;DHT22;56472;52.114;5.492;2023-04-06T01:41:12;8.50;52.00
69328;DHT22;56472;52.114;5.492;2023-04-06T01:43:51;8.50;52.30
69328;DHT22;56472;52.114;5.492;2023-04-06T01:46:24;8.40;52.40
69328;DHT22;56472;52.114;5.492;2023-04-06T01:48:51;8.50;52.80
69328;DHT22;56472;52.114;5.492;2023-04-06T01:51:34;8.40;53.00
69328;DHT22;56472;52.114;5.492;2023-04-06T01:54:03;8.40;52.90
69328;DHT22;56472;52.114;5.492;2023-04-06T01:56:53;8.40;52.90
69328;DHT22;56472;52.114;5.492;2023-04-06T01:59:30;8.40;53.20
69328;DHT22;56472;52.114;5.492;2023-04-06T02:02:01;8.40;53.50
69328;DHT22;56472;52.114;5.492;2023-04-06T02:04:29;8.40;53.90
69328;DHT22;56472;52.114;5.492;2023-04-06T02:07:06;8.40;54.10
69328;DHT22;56472;52.114;5.492;2023-04-06T02:09:33;8.40;54.00
69328;DHT22;56472;52.114;5.492;2023-04-06T02:12:00;8.40;53.80
69328;DHT22;56472;52.114;5.492;2023-04-06T02:14:30;8.40;53.80
69328;DHT22;56472;52.114;5.492;2023-04-06T02:16:59;8.40;53.70
69328;DHT22;56472;52.114;5.492;2023-04-06T02:19:26;8.40;53.50
69328;DHT22;56472;52.114;5.492;2023-04-06T02:21:53;8.40;53.30
69328;DHT22;56472;52.114;5.492;2023-04-06T02:24:20;8.40;53.20
69328;DHT22;56472;52.114;5.492;2023-04-06T02:26:47;8.40;53.10
69328;DHT22;56472;52.114;5.492;2023-04-06T02:29:14;8.40;53.50
69328;DHT22;56472;52.114;5.492;2023-04-06T02:31:41;8.40;53.50
69328;DHT22;56472;52.114;5.492;2023-04-06T02:34:08;8.40;53.60
69328;DHT22;56472;52.114;5.492;2023-04-06T02:36:41;8.50;53.60
69328;DHT22;56472;52.114;5.492;2023-04-06T02:39:08;8.50;53.50
69328;DHT22;56472;52.114;5.492;2023-04-06T02:41:36;8.50;53.30
69328;DHT22;56472;52.114;5.492;2023-04-06T02:44:05;8.50;53.10
69328;DHT22;56472;52.114;5.492;2023-04-06T02:46:37;8.50;53.20
69328;DHT22;56472;52.114;5.492;2023-04-06T02:49:04;8.50;53.30
69328;DHT22;56472;52.114;5.492;2023-04-06T02:51:33;8.50;53.30
69328;DHT22;56472;52.114;5.492;2023-04-06T02:54:23;8.50;53.20
69328;DHT22;56472;52.114;5.492;2023-04-06T02:56:51;8.50;53.40
69328;DHT22;56472;52.114;5.492;2023-04-06T02:59:18;8.50;53.50
69328;DHT22;56472;52.114;5.492;2023-04-06T03:01:56;8.50;53.80
69328;DHT22;56472;52.114;5.492;2023-04-06T03:04:23;8.50;53.80
69328;DHT22;56472;52.114;5.492;2023-04-06T03:06:54;8.60;53.70
69328;DHT22;56472;52.114;5.492;2023-04-06T03:09:32;8.60;53.60
69328;DHT22;56472;52.114;5.492;2023-04-06T03:11:59;8.60;53.60
69328;DHT22;56472;52.114;5.492;2023-04-06T03:14:28;8.60;53.60
69328;DHT22;56472;52.114;5.492;2023-04-06T03:16:55;8.60;53.50
69328;DHT22;56472;52.114;5.492;2023-04-06T03:19:24;8.60;53.40
69328;DHT22;56472;52.114;5.492;2023-04-06T03:21:52;8.60;53.50
69328;DHT22;56472;52.114;5.492;2023-04-06T03:24:20;8.60;53.70
69328;DHT22;56472;52.114;5.492;2023-04-06T03:26:47;8.70;54.20
69328;DHT22;56472;52.114;5.492;2023-04-06T03:29:14;8.70;54.50
69328;DHT22;56472;52.114;5.492;2023-04-06T03:31:41;8.70;54.60
69328;DHT22;56472;52.114;5.492;2023-04-06T03:34:31;8.70;54.70
69328;DHT22;56472;52.114;5.492;2023-04-06T03:36:57;8.70;54.80
69328;DHT22;56472;52.114;5.492;2023-04-06T03:39:39;8.70;54.80
69328;DHT22;56472;52.114;5.492;2023-04-06T03:42:06;8.70;54.90
69328;DHT22;56472;52.114;5.492;2023-04-06T03:44:36;8.70;55.80
69328;DHT22;56472;52.114;5.492;2023-04-06T03:47:03;8.80;54.60
69328;DHT22;56472;52.114;5.492;2023-04-06T03:49:30;8.70;54.50
69328;DHT22;56472;52.114;5.492;2023-04-06T03:51:58;8.70;54.30
69328;DHT22;56472;52.114;5.492;2023-04-06T03:54:25;8.80;54.20
69328;DHT22;56472;52.114;5.492;2023-04-06T03:56:52;8.70;54.30
69328;DHT22;56472;52.114;5.492;2023-04-06T03:59:18;8.70;54.30
69328;DHT22;56472;52.114;5.492;2023-04-06T04:01:46;8.70;54.30
69328;DHT22;56472;52.114;5.492;2023-04-06T04:04:13;8.80;54.20
69328;DHT22;56472;52.114;5.492;2023-04-06T04:06:39;8.80;54.00
69328;DHT22;56472;52.114;5.492;2023-04-06T04:09:07;8.80;53.90
69328;DHT22;56472;52.114;5.492;2023-04-06T04:11:34;8.80;53.80
69328;DHT22;56472;52.114;5.492;2023-04-06T04:14:01;8.80;53.70
69328;DHT22;56472;52.114;5.492;2023-04-06T04:16:28;8.70;53.70
69328;DHT22;56472;52.114;5.492;2023-04-06T04:18:56;8.70;53.70
69328;DHT22;56472;52.114;5.492;2023-04-06T04:21:24;8.80;53.70
69328;DHT22;56472;52.114;5.492;2023-04-06T04:23:52;8.80;53.80
69328;DHT22;56472;52.114;5.492;2023-04-06T04:26:19;8.80;53.70
69328;DHT22;56472;52.114;5.492;2023-04-06T04:28:46;8.80;53.80
69328;DHT22;56472;52.114;5.492;2023-04-06T04:31:14;8.70;53.70
69328;DHT22;56472;52.114;5.492;2023-04-06T04:33:41;8.70;53.60
69328;DHT22;56472;52.114;5.492;2023-04-06T04:36:13;8.70;53.50
69328;DHT22;56472;52.114;5.492;2023-04-06T04:38:42;8.70;53.70
69328;DHT22;56472;52.114;5.492;2023-04-06T04:41:10;8.70;53.80
69328;DHT22;56472;52.114;5.492;2023-04-06T04:43:39;8.70;54.10
69328;DHT22;56472;52.114;5.492;2023-04-06T04:46:06;8.70;54.60
69328;DHT22;56472;52.114;5.492;2023-04-06T04:48:39;8.70;54.70
69328;DHT22;56472;52.114;5.492;2023-04-06T04:51:07;8.70;54.60
69328;DHT22;56472;52.114;5.492;2023-04-06T04:53:52;8.70;54.50
69328;DHT22;56472;52.114;5.492;2023-04-06T04:56:23;8.70;54.60
69328;DHT22;56472;52.114;5.492;2023-04-06T04:58:56;8.60;54.70
69328;DHT22;56472;52.114;5.492;2023-04-06T05:01:24;8.60;54.80
69328;DHT22;56472;52.114;5.492;2023-04-06T05:03:52;8.60;55.00
69328;DHT22;56472;52.114;5.492;2023-04-06T05:06:19;8.60;55.20
69328;DHT22;56472;52.114;5.492;2023-04-06T05:08:46;8.60;55.10
69328;DHT22;56472;52.114;5.492;2023-04-06T05:11:13;8.60;55.00
69328;DHT22;56472;52.114;5.492;2023-04-06T05:13:45;8.60;55.00
69328;DHT22;56472;52.114;5.492;2023-04-06T05:16:16;8.60;54.90
69328;DHT22;56472;52.114;5.492;2023-04-06T05:18:44;8.60;55.00
69328;DHT22;56472;52.114;5.492;2023-04-06T05:21:11;8.60;55.20
69328;DHT22;56472;52.114;5.492;2023-04-06T05:23:50;8.60;55.30
69328;DHT22;56472;52.114;5.492;2023-04-06T05:26:17;8.60;55.50
69328;DHT22;56472;52.114;5.492;2023-04-06T05:28:45;8.60;55.70
69328;DHT22;56472;52.114;5.492;2023-04-06T05:31:13;8.60;55.80
69328;DHT22;56472;52.114;5.492;2023-04-06T05:33:46;8.70;55.80
69328;DHT22;56472;52.114;5.492;2023-04-06T05:36:15;8.70;55.90
69328;DHT22;56472;52.114;5.492;2023-04-06T05:38:45;8.70;56.00
69328;DHT22;56472;52.114;5.492;2023-04-06T05:41:32;8.70;56.10
69328;DHT22;56472;52.114;5.492;2023-04-06T05:43:59;8.80;56.20
69328;DHT22;56472;52.114;5.492;2023-04-06T05:46:27;8.80;56.20
69328;DHT22;56472;52.114;5.492;2023-04-06T05:48:57;8.80;56.10
69328;DHT22;56472;52.114;5.492;2023-04-06T05:51:27;8.80;56.10
69328;DHT22;56472;52.114;5.492;2023-04-06T05:53:54;8.90;56.20
69328;DHT22;56472;52.114;5.492;2023-04-06T05:56:21;8.90;56.40
69328;DHT22;56472;52.114;5.492;2023-04-06T05:58:48;8.90;56.60
69328;DHT22;56472;52.114;5.492;2023-04-06T06:01:21;9.00;56.70
69328;DHT22;56472;52.114;5.492;2023-04-06T06:03:48;9.00;56.60
69328;DHT22;56472;52.114;5.492;2023-04-06T06:06:15;9.00;56.40
69328;DHT22;56472;52.114;5.492;2023-04-06T06:08:56;9.10;56.50
69328;DHT22;56472;52.114;5.492;2023-04-06T06:11:26;9.10;56.40
69328;DHT22;56472;52.114;5.492;2023-04-06T06:13:53;9.10;56.50
69328;DHT22;56472;52.114;5.492;2023-04-06T06:16:20;9.20;56.50
69328;DHT22;56472;52.114;5.492;2023-04-06T06:18:47;9.20;56.60
69328;DHT22;56472;52.114;5.492;2023-04-06T06:21:15;9.20;56.60
69328;DHT22;56472;52.114;5.492;2023-04-06T06:23:44;9.30;56.70
69328;DHT22;56472;52.114;5.492;2023-04-06T06:26:15;9.30;56.50
69328;DHT22;56472;52.114;5.492;2023-04-06T06:28:42;9.30;56.30
69328;DHT22;56472;52.114;5.492;2023-04-06T06:31:11;9.40;56.30
69328;DHT22;56472;52.114;5.492;2023-04-06T06:33:39;9.40;56.10
69328;DHT22;56472;52.114;5.492;2023-04-06T06:36:07;9.40;56.50
69328;DHT22;56472;52.114;5.492;2023-04-06T06:38:34;9.40;56.60
69328;DHT22;56472;52.114;5.492;2023-04-06T06:41:01;9.50;56.60
69328;DHT22;56472;52.114;5.492;2023-04-06T06:43:31;9.50;56.70
69328;DHT22;56472;52.114;5.492;2023-04-06T06:46:01;9.50;56.60
69328;DHT22;56472;52.114;5.492;2023-04-06T06:48:28;9.50;56.50
69328;DHT22;56472;52.114;5.492;2023-04-06T06:50:55;9.60;56.60
69328;DHT22;56472;52.114;5.492;2023-04-06T06:53:23;9.60;56.50
69328;DHT22;56472;52.114;5.492;2023-04-06T06:55:50;9.60;56.70
69328;DHT22;56472;52.114;5.492;2023-04-06T06:58:20;9.70;57.00
69328;DHT22;56472;52.114;5.492;2023-04-06T07:00:47;9.70;57.10
69328;DHT22;56472;52.114;5.492;2023-04-06T07:03:14;9.80;57.10
69328;DHT22;56472;52.114;5.492;2023-04-06T07:05:46;9.80;57.40
69328;DHT22;56472;52.114;5.492;2023-04-06T07:08:16;9.90;57.30
69328;DHT22;56472;52.114;5.492;2023-04-06T07:10:43;10.00;57.30
69328;DHT22;56472;52.114;5.492;2023-04-06T07:13:10;10.00;57.20
69328;DHT22;56472;52.114;5.492;2023-04-06T07:15:37;10.10;57.20
69328;DHT22;56472;52.114;5.492;2023-04-06T07:18:04;10.10;57.40
69328;DHT22;56472;52.114;5.492;2023-04-06T07:20:31;10.20;57.60
69328;DHT22;56472;52.114;5.492;2023-04-06T07:22:58;10.20;57.60
69328;DHT22;56472;52.114;5.492;2023-04-06T07:25:25;10.30;57.50
69328;DHT22;56472;52.114;5.492;2023-04-06T07:27:52;10.30;57.10
69328;DHT22;56472;52.114;5.492;2023-04-06T07:30:19;10.40;56.70
69328;DHT22;56472;52.114;5.492;2023-04-06T07:32:47;10.40;56.60
69328;DHT22;56472;52.114;5.492;2023-04-06T07:35:14;10.40;56.40
69328;DHT22;56472;52.114;5.492;2023-04-06T07:37:41;10.40;56.10
69328;DHT22;56472;52.114;5.492;2023-04-06T07:40:09;10.40;56.10
69328;DHT22;56472;52.114;5.492;2023-04-06T07:42:37;10.40;56.30
69328;DHT22;56472;52.114;5.492;2023-04-06T07:45:06;10.40;56.20
69328;DHT22;56472;52.114;5.492;2023-04-06T07:47:33;10.40;56.30
69328;DHT22;56472;52.114;5.492;2023-04-06T07:50:01;10.50;56.60
69328;DHT22;56472;52.114;5.492;2023-04-06T07:52:28;10.50;56.60
69328;DHT22;56472;52.114;5.492;2023-04-06T07:54:55;10.50;56.90
69328;DHT22;56472;52.114;5.492;2023-04-06T07:57:22;10.50;57.10
69328;DHT22;56472;52.114;5.492;2023-04-06T07:59:49;10.60;57.50
69328;DHT22;56472;52.114;5.492;2023-04-06T08:02:16;10.70;57.50
69328;DHT22;56472;52.114;5.492;2023-04-06T08:04:44;10.70;57.30
69328;DHT22;56472;52.114;5.492;2023-04-06T08:07:11;10.70;57.20
69328;DHT22;56472;52.114;5.492;2023-04-06T08:09:39;10.80;57.10
69328;DHT22;56472;52.114;5.492;2023-04-06T08:12:06;10.90;57.20
69328;DHT22;56472;52.114;5.492;2023-04-06T08:14:33;10.90;57.20
69328;DHT22;56472;52.114;5.492;2023-04-06T08:16:59;11.00;57.30
69328;DHT22;56472;52.114;5.492;2023-04-06T08:19:26;11.10;56.70
69328;DHT22;56472;52.114;5.492;2023-04-06T08:21:53;11.10;55.60
69328;DHT22;56472;52.114;5.492;2023-04-06T08:24:20;11.20;55.50
69328;DHT22;56472;52.114;5.492;2023-04-06T08:26:47;11.20;54.90
69328;DHT22;56472;52.114;5.492;2023-04-06T08:29:14;11.30;54.40
69328;DHT22;56472;52.114;5.492;2023-04-06T08:31:41;11.30;54.40
69328;DHT22;56472;52.114;5.492;2023-04-06T08:34:08;11.40;54.00
69328;DHT22;56472;52.114;5.492;2023-04-06T08:36:39;11.40;54.20
69328;DHT22;56472;52.114;5.492;2023-04-06T08:39:06;11.40;55.00
69328;DHT22;56472;52.114;5.492;2023-04-06T08:41:34;11.50;55.20
69328;DHT22;56472;52.114;5.492;2023-04-06T08:44:02;11.60;54.70
69328;DHT22;56472;52.114;5.492;2023-04-06T08:46:30;11.60;54.60
69328;DHT22;56472;52.114;5.492;2023-04-06T08:49:00;11.70;54.50
69328;DHT22;56472;52.114;5.492;2023-04-06T08:51:28;11.70;54.60
69328;DHT22;56472;52.114;5.492;2023-04-06T08:53:57;11.80;54.30
69328;DHT22;56472;52.114;5.492;2023-04-06T08:56:26;11.80;53.90
69328;DHT22;56472;52.114;5.492;2023-04-06T08:58:54;11.90;53.40
69328;DHT22;56472;52.114;5.492;2023-04-06T09:01:25;11.80;53.50
69328;DHT22;56472;52.114;5.492;2023-04-06T09:03:56;11.90;54.30
69328;DHT22;56472;52.114;5.492;2023-04-06T09:06:25;11.90;54.30
69328;DHT22;56472;52.114;5.492;2023-04-06T09:08:54;12.00;54.10
69328;DHT22;56472;52.114;5.492;2023-04-06T09:11:22;12.00;54.40
69328;DHT22;56472;52.114;5.492;2023-04-06T09:13:53;12.10;55.00
69328;DHT22;56472;52.114;5.492;2023-04-06T09:16:21;12.20;55.20
69328;DHT22;56472;52.114;5.492;2023-04-06T09:18:48;12.20;54.30
69328;DHT22;56472;52.114;5.492;2023-04-06T09:21:19;12.20;54.00
69328;DHT22;56472;52.114;5.492;2023-04-06T09:24:01;12.30;54.00
69328;DHT22;56472;52.114;5.492;2023-04-06T09:26:29;12.30;54.20
69328;DHT22;56472;52.114;5.492;2023-04-06T09:28:57;12.30;54.20
69328;DHT22;56472;52.114;5.492;2023-04-06T09:31:27;12.40;54.30
69328;DHT22;56472;52.114;5.492;2023-04-06T09:33:55;12.40;54.30
69328;DHT22;56472;52.114;5.492;2023-04-06T09:36:32;12.50;54.30
69328;DHT22;56472;52.114;5.492;2023-04-06T09:39:04;12.50;54.20
69328;DHT22;56472;52.114;5.492;2023-04-06T09:41:33;12.60;54.20
69328;DHT22;56472;52.114;5.492;2023-04-06T09:44:12;12.60;54.50
69328;DHT22;56472;52.114;5.492;2023-04-06T09:46:44;12.70;54.80
69328;DHT22;56472;52.114;5.492;2023-04-06T09:49:14;12.80;54.20
69328;DHT22;56472;52.114;5.492;2023-04-06T09:51:45;12.80;53.20
69328;DHT22;56472;52.114;5.492;2023-04-06T09:54:19;12.80;53.60
69328;DHT22;56472;52.114;5.492;2023-04-06T09:56:54;12.90;54.20
69328;DHT22;56472;52.114;5.492;2023-04-06T09:59:31;13.00;54.40
69328;DHT22;56472;52.114;5.492;2023-04-06T10:02:05;13.00;53.80
69328;DHT22;56472;52.114;5.492;2023-04-06T10:07:00;13.10;53.10
69328;DHT22;56472;52.114;5.492;2023-04-06T10:09:31;13.10;53.00
69328;DHT22;56472;52.114;5.492;2023-04-06T10:12:04;13.20;53.50
69328;DHT22;56472;52.114;5.492;2023-04-06T10:14:33;13.20;53.30
69328;DHT22;56472;52.114;5.492;2023-04-06T10:17:04;13.30;53.10
69328;DHT22;56472;52.114;5.492;2023-04-06T10:22:30;13.30;53.70
69328;DHT22;56472;52.114;5.492;2023-04-06T10:24:58;13.30;54.20
69328;DHT22;56472;52.114;5.492;2023-04-06T10:27:29;13.40;54.40
69328;DHT22;56472;52.114;5.492;2023-04-06T10:30:04;13.40;54.70
69328;DHT22;56472;52.114;5.492;2023-04-06T10:32:36;13.40;55.00
69328;DHT22;56472;52.114;5.492;2023-04-06T10:35:11;13.50;54.50
69328;DHT22;56472;52.114;5.492;2023-04-06T10:37:51;13.50;55.10
69328;DHT22;56472;52.114;5.492;2023-04-06T10:40:20;13.50;55.40
69328;DHT22;56472;52.114;5.492;2023-04-06T10:42:48;13.50;55.50
69328;DHT22;56472;52.114;5.492;2023-04-06T10:45:22;13.50;55.40
69328;DHT22;56472;52.114;5.492;2023-04-06T10:47:52;13.50;56.30
69328;DHT22;56472;52.114;5.492;2023-04-06T10:50:20;13.50;57.30
69328;DHT22;56472;52.114;5.492;2023-04-06T10:53:01;13.50;58.00
69328;DHT22;56472;52.114;5.492;2023-04-06T10:55:29;13.40;59.00
69328;DHT22;56472;52.114;5.492;2023-04-06T10:57:56;13.40;59.80
69328;DHT22;56472;52.114;5.492;2023-04-06T11:00:23;13.40;60.50
69328;DHT22;56472;52.114;5.492;2023-04-06T11:03:00;13.40;61.20
69328;DHT22;56472;52.114;5.492;2023-04-06T11:05:29;13.30;62.50
69328;DHT22;56472;52.114;5.492;2023-04-06T11:07:56;13.30;62.90
69328;DHT22;56472;52.114;5.492;2023-04-06T11:10:23;13.20;63.30
69328;DHT22;56472;52.114;5.492;2023-04-06T11:12:54;13.10;64.00
69328;DHT22;56472;52.114;5.492;2023-04-06T11:15:22;13.00;64.70
69328;DHT22;56472;52.114;5.492;2023-04-06T11:17:49;13.00;65.00
69328;DHT22;56472;52.114;5.492;2023-04-06T11:20:16;12.90;65.60
69328;DHT22;56472;52.114;5.492;2023-04-06T11:22:49;12.90;66.20
69328;DHT22;56472;52.114;5.492;2023-04-06T11:25:17;12.80;67.00
69328;DHT22;56472;52.114;5.492;2023-04-06T11:27:46;12.80;67.70
69328;DHT22;56472;52.114;5.492;2023-04-06T11:30:14;12.70;67.80
69328;DHT22;56472;52.114;5.492;2023-04-06T11:32:43;12.70;68.90
69328;DHT22;56472;52.114;5.492;2023-04-06T11:35:21;12.70;69.30
69328;DHT22;56472;52.114;5.492;2023-04-06T11:37:49;12.60;69.00
69328;DHT22;56472;52.114;5.492;2023-04-06T11:40:23;12.60;69.50
69328;DHT22;56472;52.114;5.492;2023-04-06T11:42:55;12.60;70.40
69328;DHT22;56472;52.114;5.492;2023-04-06T11:45:23;12.60;70.60
69328;DHT22;56472;52.114;5.492;2023-04-06T11:47:57;12.60;70.80
69328;DHT22;56472;52.114;5.492;2023-04-06T11:50:32;12.60;70.00
69328;DHT22;56472;52.114;5.492;2023-04-06T11:53:01;12.50;69.90
69328;DHT22;56472;52.114;5.492;2023-04-06T11:55:36;12.50;70.50
69328;DHT22;56472;52.114;5.492;2023-04-06T11:58:03;12.50;70.80
69328;DHT22;56472;52.114;5.492;2023-04-06T12:00:30;12.50;70.90
69328;DHT22;56472;52.114;5.492;2023-04-06T12:03:01;12.50;71.00
69328;DHT22;56472;52.114;5.492;2023-04-06T12:05:28;12.40;71.40
69328;DHT22;56472;52.114;5.492;2023-04-06T12:07:55;12.50;71.50
69328;DHT22;56472;52.114;5.492;2023-04-06T12:10:24;12.50;71.80
69328;DHT22;56472;52.114;5.492;2023-04-06T12:12:51;12.50;71.60
69328;DHT22;56472;52.114;5.492;2023-04-06T12:15:18;12.50;71.90
69328;DHT22;56472;52.114;5.492;2023-04-06T12:17:45;12.50;72.00
69328;DHT22;56472;52.114;5.492;2023-04-06T12:20:12;12.50;72.10
69328;DHT22;56472;52.114;5.492;2023-04-06T12:22:52;12.50;72.40
69328;DHT22;56472;52.114;5.492;2023-04-06T12:25:19;12.50;72.20
69328;DHT22;56472;52.114;5.492;2023-04-06T12:27:46;12.40;72.40
69328;DHT22;56472;52.114;5.492;2023-04-06T12:30:14;12.40;72.80
69328;DHT22;56472;52.114;5.492;2023-04-06T12:32:41;12.50;73.10
69328;DHT22;56472;52.114;5.492;2023-04-06T12:35:08;12.50;73.10
69328;DHT22;56472;52.114;5.492;2023-04-06T12:37:36;12.50;73.20
69328;DHT22;56472;52.114;5.492;2023-04-06T12:40:03;12.50;73.40
69328;DHT22;56472;52.114;5.492;2023-04-06T12:42:31;12.50;73.70
69328;DHT22;56472;52.114;5.492;2023-04-06T12:44:57;12.50;73.70
69328;DHT22;56472;52.114;5.492;2023-04-06T12:47:25;12.60;73.80
69328;DHT22;56472;52.114;5.492;2023-04-06T12:49:53;12.60;73.60
69328;DHT22;56472;52.114;5.492;2023-04-06T12:52:21;12.60;73.40
69328;DHT22;56472;52.114;5.492;2023-04-06T12:54:48;12.60;73.40
69328;DHT22;56472;52.114;5.492;2023-04-06T12:57:17;12.50;73.30
69328;DHT22;56472;52.114;5.492;2023-04-06T12:59:44;12.60;73.60
69328;DHT22;56472;52.114;5.492;2023-04-06T13:02:11;12.50;73.30
69328;DHT22;56472;52.114;5.492;2023-04-06T13:04:38;12.50;73.40
69328;DHT22;56472;52.114;5.492;2023-04-06T13:07:05;12.50;73.50
69328;DHT22;56472;52.114;5.492;2023-04-06T13:09:32;12.50;73.70
69328;DHT22;56472;52.114;5.492;2023-04-06T13:11:59;12.50;73.90
69328;DHT22;56472;52.114;5.492;2023-04-06T13:14:27;12.50;73.70
69328;DHT22;56472;52.114;5.492;2023-04-06T13:16:54;12.40;73.80
69328;DHT22;56472;52.114;5.492;2023-04-06T13:19:22;12.40;74.00
69328;DHT22;56472;52.114;5.492;2023-04-06T13:21:49;12.40;74.10
69328;DHT22;56472;52.114;5.492;2023-04-06T13:24:16;12.40;74.60
69328;DHT22;56472;52.114;5.492;2023-04-06T13:26:43;12.40;74.80
69328;DHT22;56472;52.114;5.492;2023-04-06T13:29:10;12.40;74.80
69328;DHT22;56472;52.114;5.492;2023-04-06T13:31:37;12.40;75.20
69328;DHT22;56472;52.114;5.492;2023-04-06T13:34:05;12.40;75.30
69328;DHT22;56472;52.114;5.492;2023-04-06T13:36:32;12.40;75.30
69328;DHT22;56472;52.114;5.492;2023-04-06T13:38:59;12.40;75.20
69328;DHT22;56472;52.114;5.492;2023-04-06T13:41:26;12.40;75.40
69328;DHT22;56472;52.114;5.492;2023-04-06T13:43:53;12.30;75.30
69328;DHT22;56472;52.114;5.492;2023-04-06T13:46:20;12.30;75.30
69328;DHT22;56472;52.114;5.492;2023-04-06T13:48:47;12.30;75.20
69328;DHT22;56472;52.114;5.492;2023-04-06T13:51:14;12.30;75.40
69328;DHT22;56472;52.114;5.492;2023-04-06T13:53:42;12.20;75.70
69328;DHT22;56472;52.114;5.492;2023-04-06T13:56:09;12.20;76.00
69328;DHT22;56472;52.114;5.492;2023-04-06T13:58:36;12.20;76.10
69328;DHT22;56472;52.114;5.492;2023-04-06T14:03:31;12.20;76.30
69328;DHT22;56472;52.114;5.492;2023-04-06T14:05:59;12.20;76.40
69328;DHT22;56472;52.114;5.492;2023-04-06T14:08:41;12.20;76.40
69328;DHT22;56472;52.114;5.492;2023-04-06T14:11:12;12.20;76.50
69328;DHT22;56472;52.114;5.492;2023-04-06T14:13:40;12.20;76.60
69328;DHT22;56472;52.114;5.492;2023-04-06T14:16:07;12.10;76.80
69328;DHT22;56472;52.114;5.492;2023-04-06T14:18:34;12.10;76.90
69328;DHT22;56472;52.114;5.492;2023-04-06T14:21:01;12.10;77.10
69328;DHT22;56472;52.114;5.492;2023-04-06T14:23:28;12.10;77.20
69328;DHT22;56472;52.114;5.492;2023-04-06T14:26:05;12.10;77.50
69328;DHT22;56472;52.114;5.492;2023-04-06T14:28:33;12.00;77.50
69328;DHT22;56472;52.114;5.492;2023-04-06T14:31:01;12.00;77.50
69328;DHT22;56472;52.114;5.492;2023-04-06T14:33:30;12.00;77.60
69328;DHT22;56472;52.114;5.492;2023-04-06T14:35:57;12.00;77.70
69328;DHT22;56472;52.114;5.492;2023-04-06T14:38:24;12.00;78.00
69328;DHT22;56472;52.114;5.492;2023-04-06T14:40:51;12.00;78.00
69328;DHT22;56472;52.114;5.492;2023-04-06T14:43:18;12.00;78.00
69328;DHT22;56472;52.114;5.492;2023-04-06T14:45:44;12.00;78.20
69328;DHT22;56472;52.114;5.492;2023-04-06T14:48:11;12.00;78.40
69328;DHT22;56472;52.114;5.492;2023-04-06T14:50:39;12.00;78.60
69328;DHT22;56472;52.114;5.492;2023-04-06T14:53:06;12.00;78.60
69328;DHT22;56472;52.114;5.492;2023-04-06T14:55:33;12.10;78.70
69328;DHT22;56472;52.114;5.492;2023-04-06T14:58:05;12.00;78.70
69328;DHT22;56472;52.114;5.492;2023-04-06T15:00:31;12.10;78.80
69328;DHT22;56472;52.114;5.492;2023-04-06T15:02:58;12.10;78.70
69328;DHT22;56472;52.114;5.492;2023-04-06T15:05:26;12.10;78.70
69328;DHT22;56472;52.114;5.492;2023-04-06T15:07:53;12.10;78.60
69328;DHT22;56472;52.114;5.492;2023-04-06T15:10:20;12.10;78.50
69328;DHT22;56472;52.114;5.492;2023-04-06T15:12:46;12.00;78.60
69328;DHT22;56472;52.114;5.492;2023-04-06T15:15:13;12.10;78.70
69328;DHT22;56472;52.114;5.492;2023-04-06T15:17:40;12.00;78.80
69328;DHT22;56472;52.114;5.492;2023-04-06T15:20:07;12.00;78.80
69328;DHT22;56472;52.114;5.492;2023-04-06T15:22:35;12.00;79.00
69328;DHT22;56472;52.114;5.492;2023-04-06T15:25:02;12.00;79.90
69328;DHT22;56472;52.114;5.492;2023-04-06T15:27:29;12.00;79.10
69328;DHT22;56472;52.114;5.492;2023-04-06T15:29:56;12.00;79.20
69328;DHT22;56472;52.114;5.492;2023-04-06T15:32:25;12.10;79.30
69328;DHT22;56472;52.114;5.492;2023-04-06T15:34:57;12.00;79.40
69328;DHT22;56472;52.114;5.492;2023-04-06T15:37:24;12.00;79.60
69328;DHT22;56472;52.114;5.492;2023-04-06T15:39:51;12.00;79.60
69328;DHT22;56472;52.114;5.492;2023-04-06T15:42:18;12.00;79.70
69328;DHT22;56472;52.114;5.492;2023-04-06T15:44:45;12.00;79.80
69328;DHT22;56472;52.114;5.492;2023-04-06T15:47:12;12.00;80.00
69328;DHT22;56472;52.114;5.492;2023-04-06T15:49:39;12.00;80.00
69328;DHT22;56472;52.114;5.492;2023-04-06T15:52:06;12.00;80.10
69328;DHT22;56472;52.114;5.492;2023-04-06T15:54:33;12.00;80.30
69328;DHT22;56472;52.114;5.492;2023-04-06T15:56:59;12.00;80.30